sensor_id;sensor_type;location;lat;lon;timestamp;pressure;altitude;pressure_sealevel;temperature;humidity
14232;BME280;7200;52.194;9.900;2023-05-15T00:00:48;100153.25;;;14.95;100.00
14232;BME280;7200;52.194;9.900;2023-05-15T00:03:13;100113.03;;;14.57;100.00
14232;BME280;7200;52.194;9.900;2023-05-15T00:05:39;100141.63;;;14.68;100.00
14232;BME280;7200;52.194;9.900;2023-05-15T00:08:04;100105.94;;;14.26;100.00
14232;BME280;7200;52.194;9.900;2023-05-15T00:10:29;100116.53;;;14.26;100.00
14232;BME280;7200;52.194;9.900;2023-05-15T00:12:55;100115.34;;;14.31;100.00
14232;BME280;7200;52.194;9.900;2023-05-15T00:15:20;100120.38;;;14.52;100.00
14232;BME280;7200;52.194;9.900;2023-05-15T00:17:46;100108.56;;;14.57;100.00
14232;BME280;7200;52.194;9.900;2023-05-15T00:20:11;100100.75;;;14.70;100.00
14232;BME280;7200;52.194;9.900;2023-05-15T00:22:37;100085.50;;;14.74;100.00
14232;BME280;7200;52.194;9.900;2023-05-15T00:25:02;100074.56;;;14.78;100.00
14232;BME280;7200;52.194;9.900;2023-05-15T00:27:28;100045.72;;;14.58;100.00
14232;BME280;7200;52.194;9.900;2023-05-15T00:29:53;100067.84;;;14.73;100.00
14232;BME280;7200;52.194;9.900;2023-05-15T00:32:18;100061.59;;;14.74;100.00
14232;BME280;7200;52.194;9.900;2023-05-15T00:34:44;100075.16;;;14.84;100.00
14232;BME280;7200;52.194;9.900;2023-05-15T00:37:09;100068.03;;;14.84;100.00
14232;BME280;7200;52.194;9.900;2023-05-15T00:39:35;100069.94;;;14.82;100.00
14232;BME280;7200;52.194;9.900;2023-05-15T00:42:02;100066.25;;;14.85;100.00
14232;BME280;7200;52.194;9.900;2023-05-15T00:44:27;100061.03;;;14.83;100.00
14232;BME280;7200;52.194;9.900;2023-05-15T00:46:54;100040.41;;;14.58;100.00
14232;BME280;7200;52.194;9.900;2023-05-15T00:49:22;100078.78;;;14.83;100.00
14232;BME280;7200;52.194;9.900;2023-05-15T00:51:48;100048.19;;;14.61;100.00
14232;BME280;7200;52.194;9.900;2023-05-15T00:54:14;100064.97;;;14.62;100.00
14232;BME280;7200;52.194;9.900;2023-05-15T00:56:40;100073.13;;;14.58;100.00
14232;BME280;7200;52.194;9.900;2023-05-15T00:59:08;100086.75;;;14.83;100.00
14232;BME280;7200;52.194;9.900;2023-05-15T01:01:34;100082.00;;;14.88;100.00
14232;BME280;7200;52.194;9.900;2023-05-15T01:04:01;100084.31;;;14.94;100.00
14232;BME280;7200;52.194;9.900;2023-05-15T01:06:27;100084.81;;;15.15;100.00
14232;BME280;7200;52.194;9.900;2023-05-15T01:08:55;100064.09;;;15.06;100.00
14232;BME280;7200;52.194;9.900;2023-05-15T01:11:24;100077.19;;;15.23;100.00
14232;BME280;7200;52.194;9.900;2023-05-15T01:13:50;100059.84;;;15.32;100.00
14232;BME280;7200;52.194;9.900;2023-05-15T01:16:15;100048.38;;;15.17;100.00
14232;BME280;7200;52.194;9.900;2023-05-15T01:18:40;100043.88;;;15.17;100.00
14232;BME280;7200;52.194;9.900;2023-05-15T01:28:56;100039.59;;;15.44;100.00
14232;BME280;7200;52.194;9.900;2023-05-15T01:31:23;100031.09;;;15.24;100.00
14232;BME280;7200;52.194;9.900;2023-05-15T01:33:55;100029.66;;;15.33;100.00
14232;BME280;7200;52.194;9.900;2023-05-15T01:36:23;100020.47;;;15.24;100.00
14232;BME280;7200;52.194;9.900;2023-05-15T01:38:56;100017.50;;;15.00;100.00
14232;BME280;7200;52.194;9.900;2023-05-15T01:44:01;100047.41;;;15.32;100.00
14232;BME280;7200;52.194;9.900;2023-05-15T01:46:30;100048.06;;;15.36;100.00
14232;BME280;7200;52.194;9.900;2023-05-15T01:48:57;100044.56;;;15.35;100.00
14232;BME280;7200;52.194;9.900;2023-05-15T01:51:25;100042.00;;;15.34;100.00
14232;BME280;7200;52.194;9.900;2023-05-15T01:53:52;100017.22;;;15.19;100.00
14232;BME280;7200;52.194;9.900;2023-05-15T01:56:18;99998.81;;;14.87;100.00
14232;BME280;7200;52.194;9.900;2023-05-15T01:58:45;99992.84;;;14.69;100.00
14232;BME280;7200;52.194;9.900;2023-05-15T02:01:12;100018.53;;;14.83;100.00
14232;BME280;7200;52.194;9.900;2023-05-15T02:03:38;100054.59;;;15.16;100.00
14232;BME280;7200;52.194;9.900;2023-05-15T02:06:04;100031.47;;;15.04;100.00
14232;BME280;7200;52.194;9.900;2023-05-15T02:08:31;100003.94;;;14.76;100.00
14232;BME280;7200;52.194;9.900;2023-05-15T02:10:58;100023.19;;;14.79;100.00
14232;BME280;7200;52.194;9.900;2023-05-15T02:13:25;100014.63;;;14.74;100.00
14232;BME280;7200;52.194;9.900;2023-05-15T02:15:51;100024.19;;;14.63;100.00
14232;BME280;7200;52.194;9.900;2023-05-15T02:18:16;100046.25;;;14.79;100.00
14232;BME280;7200;52.194;9.900;2023-05-15T02:20:42;100057.63;;;14.95;100.00
14232;BME280;7200;52.194;9.900;2023-05-15T02:23:07;100026.13;;;14.89;100.00
14232;BME280;7200;52.194;9.900;2023-05-15T02:25:50;100051.78;;;15.19;100.00
14232;BME280;7200;52.194;9.900;2023-05-15T02:28:25;100047.22;;;15.35;100.00
14232;BME280;7200;52.194;9.900;2023-05-15T02:30:55;100056.63;;;15.41;100.00
14232;BME280;7200;52.194;9.900;2023-05-15T02:33:41;100039.34;;;15.19;100.00
14232;BME280;7200;52.194;9.900;2023-05-15T02:36:10;100020.91;;;14.73;100.00
14232;BME280;7200;52.194;9.900;2023-05-15T02:38:46;100020.53;;;14.49;100.00
14232;BME280;7200;52.194;9.900;2023-05-15T02:41:14;100050.84;;;14.61;100.00
14232;BME280;7200;52.194;9.900;2023-05-15T02:43:39;100049.75;;;14.33;100.00
14232;BME280;7200;52.194;9.900;2023-05-15T02:46:06;100058.53;;;14.50;100.00
14232;BME280;7200;52.194;9.900;2023-05-15T02:48:33;100035.53;;;14.81;100.00
14232;BME280;7200;52.194;9.900;2023-05-15T02:51:00;100067.88;;;14.87;100.00
14232;BME280;7200;52.194;9.900;2023-05-15T02:53:25;100073.47;;;14.97;100.00
14232;BME280;7200;52.194;9.900;2023-05-15T02:55:50;100059.25;;;14.98;100.00
14232;BME280;7200;52.194;9.900;2023-05-15T02:58:16;100027.06;;;14.74;100.00
14232;BME280;7200;52.194;9.900;2023-05-15T03:00:41;99998.00;;;14.56;100.00
14232;BME280;7200;52.194;9.900;2023-05-15T03:03:07;100020.03;;;14.73;100.00
14232;BME280;7200;52.194;9.900;2023-05-15T03:05:32;99968.75;;;14.42;100.00
14232;BME280;7200;52.194;9.900;2023-05-15T03:07:59;99988.59;;;14.51;100.00
14232;BME280;7200;52.194;9.900;2023-05-15T03:10:24;99957.34;;;14.26;100.00
14232;BME280;7200;52.194;9.900;2023-05-15T03:12:49;99979.44;;;14.26;100.00
14232;BME280;7200;52.194;9.900;2023-05-15T03:15:15;100007.63;;;14.73;100.00
14232;BME280;7200;52.194;9.900;2023-05-15T03:17:40;99987.63;;;14.68;100.00
14232;BME280;7200;52.194;9.900;2023-05-15T03:20:06;99993.50;;;14.87;100.00
14232;BME280;7200;52.194;9.900;2023-05-15T03:22:33;99970.66;;;14.85;100.00
14232;BME280;7200;52.194;9.900;2023-05-15T03:24:58;99974.34;;;14.96;100.00
14232;BME280;7200;52.194;9.900;2023-05-15T03:27:25;99939.25;;;14.77;100.00
14232;BME280;7200;52.194;9.900;2023-05-15T03:29:51;99940.66;;;14.68;100.00
14232;BME280;7200;52.194;9.900;2023-05-15T03:32:16;99954.03;;;14.67;100.00
14232;BME280;7200;52.194;9.900;2023-05-15T03:34:41;99974.44;;;14.81;100.00
14232;BME280;7200;52.194;9.900;2023-05-15T03:37:07;99977.31;;;14.92;100.00
14232;BME280;7200;52.194;9.900;2023-05-15T03:39:32;99975.66;;;14.89;100.00
14232;BME280;7200;52.194;9.900;2023-05-15T03:41:57;99989.41;;;15.10;100.00
14232;BME280;7200;52.194;9.900;2023-05-15T03:44:23;99988.00;;;15.19;100.00
14232;BME280;7200;52.194;9.900;2023-05-15T03:46:48;99957.34;;;15.13;100.00
14232;BME280;7200;52.194;9.900;2023-05-15T03:49:13;99960.31;;;15.09;100.00
14232;BME280;7200;52.194;9.900;2023-05-15T03:51:38;99954.81;;;14.97;100.00
14232;BME280;7200;52.194;9.900;2023-05-15T03:54:04;99939.06;;;14.80;100.00
14232;BME280;7200;52.194;9.900;2023-05-15T03:56:30;99931.38;;;14.75;100.00
14232;BME280;7200;52.194;9.900;2023-05-15T03:58:56;99949.00;;;14.91;100.00
14232;BME280;7200;52.194;9.900;2023-05-15T04:01:21;99955.28;;;15.04;100.00
14232;BME280;7200;52.194;9.900;2023-05-15T04:03:46;99962.34;;;15.18;100.00
14232;BME280;7200;52.194;9.900;2023-05-15T04:06:12;99954.28;;;15.19;100.00
14232;BME280;7200;52.194;9.900;2023-05-15T04:08:37;99939.72;;;14.98;100.00
14232;BME280;7200;52.194;9.900;2023-05-15T04:11:02;99975.94;;;15.13;100.00
14232;BME280;7200;52.194;9.900;2023-05-15T04:13:27;99922.19;;;14.81;100.00
14232;BME280;7200;52.194;9.900;2023-05-15T04:15:53;99927.75;;;14.76;100.00
14232;BME280;7200;52.194;9.900;2023-05-15T04:18:19;99966.75;;;15.05;100.00
14232;BME280;7200;52.194;9.900;2023-05-15T04:20:44;99962.34;;;15.18;100.00
14232;BME280;7200;52.194;9.900;2023-05-15T04:23:09;99976.56;;;15.46;100.00
14232;BME280;7200;52.194;9.900;2023-05-15T04:25:35;99979.19;;;15.60;100.00
14232;BME280;7200;52.194;9.900;2023-05-15T04:28:00;99967.09;;;15.69;100.00
14232;BME280;7200;52.194;9.900;2023-05-15T04:30:25;99955.50;;;15.70;100.00
14232;BME280;7200;52.194;9.900;2023-05-15T04:32:51;99942.41;;;15.67;100.00
14232;BME280;7200;52.194;9.900;2023-05-15T04:35:16;99944.97;;;15.68;100.00
14232;BME280;7200;52.194;9.900;2023-05-15T04:37:42;99946.03;;;15.66;100.00
14232;BME280;7200;52.194;9.900;2023-05-15T04:40:09;99932.03;;;15.49;100.00
14232;BME280;7200;52.194;9.900;2023-05-15T04:42:35;99922.41;;;15.19;100.00
14232;BME280;7200;52.194;9.900;2023-05-15T04:45:02;99955.84;;;15.51;100.00
14232;BME280;7200;52.194;9.900;2023-05-15T04:47:27;99942.06;;;15.31;100.00
14232;BME280;7200;52.194;9.900;2023-05-15T04:49:53;99968.47;;;15.62;100.00
14232;BME280;7200;52.194;9.900;2023-05-15T04:52:18;99964.44;;;15.69;100.00
14232;BME280;7200;52.194;9.900;2023-05-15T04:54:43;99975.25;;;15.80;100.00
14232;BME280;7200;52.194;9.900;2023-05-15T04:57:09;99939.38;;;15.73;100.00
14232;BME280;7200;52.194;9.900;2023-05-15T04:59:34;99951.75;;;15.60;100.00
14232;BME280;7200;52.194;9.900;2023-05-15T05:02:00;99960.38;;;15.63;100.00
14232;BME280;7200;52.194;9.900;2023-05-15T05:04:26;99965.03;;;15.74;100.00
14232;BME280;7200;52.194;9.900;2023-05-15T05:06:51;99954.06;;;16.06;100.00
14232;BME280;7200;52.194;9.900;2023-05-15T05:09:19;99911.25;;;15.96;100.00
14232;BME280;7200;52.194;9.900;2023-05-15T05:11:45;99937.66;;;15.72;100.00
14232;BME280;7200;52.194;9.900;2023-05-15T05:14:14;99973.16;;;16.12;100.00
14232;BME280;7200;52.194;9.900;2023-05-15T05:16:41;99932.19;;;15.61;100.00
14232;BME280;7200;52.194;9.900;2023-05-15T05:19:08;99983.19;;;15.53;100.00
14232;BME280;7200;52.194;9.900;2023-05-15T05:21:33;100014.13;;;15.68;100.00
14232;BME280;7200;52.194;9.900;2023-05-15T05:23:58;100006.97;;;15.83;100.00
14232;BME280;7200;52.194;9.900;2023-05-15T05:26:24;99989.16;;;15.71;100.00
14232;BME280;7200;52.194;9.900;2023-05-15T05:28:50;100029.34;;;15.93;100.00
14232;BME280;7200;52.194;9.900;2023-05-15T05:31:15;100013.53;;;15.92;100.00
14232;BME280;7200;52.194;9.900;2023-05-15T05:33:41;100014.81;;;15.99;100.00
14232;BME280;7200;52.194;9.900;2023-05-15T05:36:06;100043.03;;;16.02;100.00
14232;BME280;7200;52.194;9.900;2023-05-15T05:38:32;100075.19;;;16.26;100.00
14232;BME280;7200;52.194;9.900;2023-05-15T05:40:57;100051.22;;;16.39;100.00
14232;BME280;7200;52.194;9.900;2023-05-15T05:43:24;100063.75;;;16.51;100.00
14232;BME280;7200;52.194;9.900;2023-05-15T05:45:50;100021.09;;;15.98;100.00
14232;BME280;7200;52.194;9.900;2023-05-15T05:48:15;100024.91;;;15.94;100.00
14232;BME280;7200;52.194;9.900;2023-05-15T05:50:40;100073.16;;;16.29;100.00
14232;BME280;7200;52.194;9.900;2023-05-15T05:53:06;100065.38;;;16.26;100.00
14232;BME280;7200;52.194;9.900;2023-05-15T05:55:31;100090.22;;;16.40;100.00
14232;BME280;7200;52.194;9.900;2023-05-15T05:57:57;100081.50;;;16.38;100.00
14232;BME280;7200;52.194;9.900;2023-05-15T06:00:23;100059.50;;;16.21;100.00
14232;BME280;7200;52.194;9.900;2023-05-15T06:02:52;100054.72;;;16.26;100.00
14232;BME280;7200;52.194;9.900;2023-05-15T06:05:18;100031.00;;;16.36;100.00
14232;BME280;7200;52.194;9.900;2023-05-15T06:07:44;100025.91;;;16.46;100.00
14232;BME280;7200;52.194;9.900;2023-05-15T06:10:09;100038.50;;;16.57;100.00
14232;BME280;7200;52.194;9.900;2023-05-15T06:12:35;100006.03;;;16.64;100.00
14232;BME280;7200;52.194;9.900;2023-05-15T06:15:01;99986.94;;;16.45;100.00
14232;BME280;7200;52.194;9.900;2023-05-15T06:17:26;99985.66;;;16.38;100.00
14232;BME280;7200;52.194;9.900;2023-05-15T06:19:51;100016.03;;;16.73;100.00
14232;BME280;7200;52.194;9.900;2023-05-15T06:22:16;100033.03;;;16.98;100.00
14232;BME280;7200;52.194;9.900;2023-05-15T06:24:42;100000.38;;;16.82;100.00
14232;BME280;7200;52.194;9.900;2023-05-15T06:27:07;99990.50;;;16.84;100.00
14232;BME280;7200;52.194;9.900;2023-05-15T06:29:32;100017.34;;;17.06;100.00
14232;BME280;7200;52.194;9.900;2023-05-15T06:31:58;100007.88;;;17.02;100.00
14232;BME280;7200;52.194;9.900;2023-05-15T06:34:23;100044.00;;;17.32;100.00
14232;BME280;7200;52.194;9.900;2023-05-15T06:36:48;100009.03;;;17.24;100.00
14232;BME280;7200;52.194;9.900;2023-05-15T06:39:13;100013.00;;;17.05;100.00
14232;BME280;7200;52.194;9.900;2023-05-15T06:41:39;99992.06;;;16.73;100.00
14232;BME280;7200;52.194;9.900;2023-05-15T06:44:04;100058.31;;;17.18;100.00
14232;BME280;7200;52.194;9.900;2023-05-15T06:46:29;100050.25;;;17.44;100.00
14232;BME280;7200;52.194;9.900;2023-05-15T06:48:54;100018.50;;;17.28;100.00
14232;BME280;7200;52.194;9.900;2023-05-15T06:51:20;99964.50;;;16.87;100.00
14232;BME280;7200;52.194;9.900;2023-05-15T06:53:45;99986.34;;;17.05;100.00
14232;BME280;7200;52.194;9.900;2023-05-15T06:56:10;99947.34;;;16.91;100.00
14232;BME280;7200;52.194;9.900;2023-05-15T06:58:36;99950.94;;;17.03;100.00
14232;BME280;7200;52.194;9.900;2023-05-15T07:01:01;99957.22;;;17.02;100.00
14232;BME280;7200;52.194;9.900;2023-05-15T07:03:31;99948.19;;;16.92;100.00
14232;BME280;7200;52.194;9.900;2023-05-15T07:05:56;99963.09;;;17.07;100.00
14232;BME280;7200;52.194;9.900;2023-05-15T07:08:22;99923.47;;;17.03;100.00
14232;BME280;7200;52.194;9.900;2023-05-15T07:10:47;99949.84;;;17.19;100.00
14232;BME280;7200;52.194;9.900;2023-05-15T07:13:15;99970.44;;;17.17;100.00
14232;BME280;7200;52.194;9.900;2023-05-15T07:15:40;99968.53;;;17.06;100.00
14232;BME280;7200;52.194;9.900;2023-05-15T07:18:06;99972.25;;;17.16;100.00
14232;BME280;7200;52.194;9.900;2023-05-15T07:20:31;99968.38;;;17.33;100.00
14232;BME280;7200;52.194;9.900;2023-05-15T07:22:56;99956.22;;;17.29;100.00
14232;BME280;7200;52.194;9.900;2023-05-15T07:25:22;99912.97;;;17.12;100.00
14232;BME280;7200;52.194;9.900;2023-05-15T07:27:48;99937.91;;;17.24;100.00
14232;BME280;7200;52.194;9.900;2023-05-15T07:30:13;99967.16;;;17.50;100.00
14232;BME280;7200;52.194;9.900;2023-05-15T07:32:38;99959.09;;;17.63;100.00
14232;BME280;7200;52.194;9.900;2023-05-15T07:35:04;99933.97;;;17.54;100.00
14232;BME280;7200;52.194;9.900;2023-05-15T07:37:30;99971.00;;;17.70;100.00
14232;BME280;7200;52.194;9.900;2023-05-15T07:39:55;99946.63;;;17.63;100.00
14232;BME280;7200;52.194;9.900;2023-05-15T07:42:21;99942.19;;;17.75;100.00
14232;BME280;7200;52.194;9.900;2023-05-15T07:44:46;99911.38;;;17.47;100.00
14232;BME280;7200;52.194;9.900;2023-05-15T07:47:11;99950.00;;;17.41;100.00
14232;BME280;7200;52.194;9.900;2023-05-15T07:49:37;99989.03;;;17.79;100.00
14232;BME280;7200;52.194;9.900;2023-05-15T07:52:02;99976.03;;;17.75;100.00
14232;BME280;7200;52.194;9.900;2023-05-15T07:54:27;99971.78;;;17.96;100.00
14232;BME280;7200;52.194;9.900;2023-05-15T07:56:55;99904.31;;;17.70;100.00
14232;BME280;7200;52.194;9.900;2023-05-15T07:59:21;99907.69;;;17.85;100.00
14232;BME280;7200;52.194;9.900;2023-05-15T08:01:46;99907.84;;;17.95;100.00
14232;BME280;7200;52.194;9.900;2023-05-15T08:04:13;99907.69;;;17.85;100.00
14232;BME280;7200;52.194;9.900;2023-05-15T08:06:38;99906.88;;;17.96;100.00
14232;BME280;7200;52.194;9.900;2023-05-15T08:09:04;99925.25;;;18.12;100.00
14232;BME280;7200;52.194;9.900;2023-05-15T08:11:29;99925.50;;;18.08;100.00
14232;BME280;7200;52.194;9.900;2023-05-15T08:13:54;99915.16;;;18.04;100.00
14232;BME280;7200;52.194;9.900;2023-05-15T08:16:20;99856.19;;;17.71;100.00
14232;BME280;7200;52.194;9.900;2023-05-15T08:18:45;99911.72;;;17.90;100.00
14232;BME280;7200;52.194;9.900;2023-05-15T08:21:10;99939.50;;;18.23;100.00
14232;BME280;7200;52.194;9.900;2023-05-15T08:23:35;99912.31;;;18.29;100.00
14232;BME280;7200;52.194;9.900;2023-05-15T08:26:01;99898.94;;;18.18;100.00
14232;BME280;7200;52.194;9.900;2023-05-15T08:28:26;99919.38;;;18.42;100.00
14232;BME280;7200;52.194;9.900;2023-05-15T08:30:51;99867.75;;;18.19;100.00
14232;BME280;7200;52.194;9.900;2023-05-15T08:33:17;99904.56;;;18.38;100.00
14232;BME280;7200;52.194;9.900;2023-05-15T08:35:42;99929.78;;;18.80;100.00
14232;BME280;7200;52.194;9.900;2023-05-15T08:38:07;99865.00;;;18.65;100.00
14232;BME280;7200;52.194;9.900;2023-05-15T08:40:33;99841.69;;;18.45;100.00
14232;BME280;7200;52.194;9.900;2023-05-15T08:43:11;99881.53;;;18.59;100.00
14232;BME280;7200;52.194;9.900;2023-05-15T08:45:40;99871.06;;;18.79;100.00
14232;BME280;7200;52.194;9.900;2023-05-15T08:48:11;99875.34;;;18.93;100.00
14232;BME280;7200;52.194;9.900;2023-05-15T08:50:37;99857.63;;;18.80;100.00
14232;BME280;7200;52.194;9.900;2023-05-15T08:53:04;99908.88;;;19.08;100.00
14232;BME280;7200;52.194;9.900;2023-05-15T08:55:29;99889.75;;;19.24;100.00
14232;BME280;7200;52.194;9.900;2023-05-15T08:57:55;99904.50;;;19.51;100.00
14232;BME280;7200;52.194;9.900;2023-05-15T09:00:20;99850.34;;;19.26;100.00
14232;BME280;7200;52.194;9.900;2023-05-15T09:02:46;99895.38;;;19.53;100.00
14232;BME280;7200;52.194;9.900;2023-05-15T09:05:12;99874.56;;;19.57;100.00
14232;BME280;7200;52.194;9.900;2023-05-15T09:07:38;99800.34;;;19.38;100.00
14232;BME280;7200;52.194;9.900;2023-05-15T09:10:07;99809.53;;;19.24;100.00
14232;BME280;7200;52.194;9.900;2023-05-15T09:12:35;99862.19;;;19.56;100.00
14232;BME280;7200;52.194;9.900;2023-05-15T09:15:08;99844.69;;;19.84;100.00
14232;BME280;7200;52.194;9.900;2023-05-15T09:17:34;99838.75;;;19.80;100.00
14232;BME280;7200;52.194;9.900;2023-05-15T09:20:01;99835.91;;;19.61;100.00
14232;BME280;7200;52.194;9.900;2023-05-15T09:22:26;99832.91;;;19.75;100.00
14232;BME280;7200;52.194;9.900;2023-05-15T09:24:52;99870.44;;;20.48;100.00
14232;BME280;7200;52.194;9.900;2023-05-15T09:27:18;99785.34;;;20.31;100.00
14232;BME280;7200;52.194;9.900;2023-05-15T09:29:44;99853.47;;;21.09;100.00
14232;BME280;7200;52.194;9.900;2023-05-15T09:32:11;99779.59;;;20.76;100.00
14232;BME280;7200;52.194;9.900;2023-05-15T09:34:40;99747.63;;;20.53;100.00
14232;BME280;7200;52.194;9.900;2023-05-15T09:37:07;99758.59;;;20.40;100.00
14232;BME280;7200;52.194;9.900;2023-05-15T09:39:34;99795.75;;;20.24;100.00
14232;BME280;7200;52.194;9.900;2023-05-15T09:42:08;99890.44;;;20.96;100.00
14232;BME280;7200;52.194;9.900;2023-05-15T09:44:34;99806.00;;;20.90;100.00
14232;BME280;7200;52.194;9.900;2023-05-15T09:47:00;99841.09;;;21.18;100.00
14232;BME280;7200;52.194;9.900;2023-05-15T09:49:30;99824.53;;;21.13;100.00
14232;BME280;7200;52.194;9.900;2023-05-15T09:51:59;99795.03;;;20.93;100.00
14232;BME280;7200;52.194;9.900;2023-05-15T09:54:25;99780.59;;;20.75;100.00
14232;BME280;7200;52.194;9.900;2023-05-15T09:57:06;99910.22;;;22.04;100.00
14232;BME280;7200;52.194;9.900;2023-05-15T09:59:32;99747.38;;;21.46;100.00
14232;BME280;7200;52.194;9.900;2023-05-15T10:01:57;99774.44;;;21.23;100.00
14232;BME280;7200;52.194;9.900;2023-05-15T10:04:22;99784.75;;;21.18;100.00
14232;BME280;7200;52.194;9.900;2023-05-15T10:06:48;99832.78;;;21.60;100.00
14232;BME280;7200;52.194;9.900;2023-05-15T10:09:14;99775.72;;;21.68;100.00
14232;BME280;7200;52.194;9.900;2023-05-15T10:11:45;99773.34;;;21.55;100.00
14232;BME280;7200;52.194;9.900;2023-05-15T10:14:14;99801.44;;;21.51;100.00
14232;BME280;7200;52.194;9.900;2023-05-15T10:16:40;99773.72;;;21.11;100.00
14232;BME280;7200;52.194;9.900;2023-05-15T10:19:08;99781.78;;;21.31;100.00
14232;BME280;7200;52.194;9.900;2023-05-15T10:21:38;99815.16;;;21.57;100.00
14232;BME280;7200;52.194;9.900;2023-05-15T10:24:05;99770.91;;;21.23;100.00
14232;BME280;7200;52.194;9.900;2023-05-15T10:26:37;99828.31;;;21.61;100.00
14232;BME280;7200;52.194;9.900;2023-05-15T10:29:09;99846.81;;;21.83;100.00
14232;BME280;7200;52.194;9.900;2023-05-15T10:31:34;99766.41;;;21.52;100.00
14232;BME280;7200;52.194;9.900;2023-05-15T10:34:04;99845.09;;;21.72;100.00
14232;BME280;7200;52.194;9.900;2023-05-15T10:36:33;99827.25;;;21.81;100.00
14232;BME280;7200;52.194;9.900;2023-05-15T10:39:00;99854.78;;;22.12;100.00
14232;BME280;7200;52.194;9.900;2023-05-15T10:41:28;99775.88;;;21.47;100.00
14232;BME280;7200;52.194;9.900;2023-05-15T10:43:57;99807.09;;;21.57;100.00
14232;BME280;7200;52.194;9.900;2023-05-15T10:46:23;99774.72;;;21.30;100.00
14232;BME280;7200;52.194;9.900;2023-05-15T10:48:49;99835.06;;;21.65;100.00
14232;BME280;7200;52.194;9.900;2023-05-15T10:51:17;99811.34;;;21.50;100.00
14232;BME280;7200;52.194;9.900;2023-05-15T10:53:43;99776.84;;;21.26;100.00
14232;BME280;7200;52.194;9.900;2023-05-15T10:56:15;99785.75;;;21.36;100.00
14232;BME280;7200;52.194;9.900;2023-05-15T10:58:47;99755.50;;;21.25;100.00
14232;BME280;7200;52.194;9.900;2023-05-15T11:01:32;99807.94;;;21.68;100.00
14232;BME280;7200;52.194;9.900;2023-05-15T11:06:32;99773.75;;;21.41;100.00
14232;BME280;7200;52.194;9.900;2023-05-15T11:14:20;99744.59;;;21.85;100.00
14232;BME280;7200;52.194;9.900;2023-05-15T11:25:04;99746.53;;;21.92;100.00
14232;BME280;7200;52.194;9.900;2023-05-15T11:30:21;99762.34;;;22.05;100.00
14232;BME280;7200;52.194;9.900;2023-05-15T11:32:55;99727.56;;;22.04;100.00
14232;BME280;7200;52.194;9.900;2023-05-15T11:35:42;99709.03;;;22.10;99.72
14232;BME280;7200;52.194;9.900;2023-05-15T11:45:43;99664.50;;;22.81;91.50
14232;BME280;7200;52.194;9.900;2023-05-15T11:48:12;99604.81;;;22.42;91.48
14232;BME280;7200;52.194;9.900;2023-05-15T11:50:40;99579.94;;;22.40;89.41
14232;BME280;7200;52.194;9.900;2023-05-15T11:53:07;99643.91;;;22.72;91.14
14232;BME280;7200;52.194;9.900;2023-05-15T11:55:37;99709.25;;;23.18;90.60
14232;BME280;7200;52.194;9.900;2023-05-15T11:58:05;99640.03;;;23.28;88.61
14232;BME280;7200;52.194;9.900;2023-05-15T12:00:30;99641.44;;;23.41;87.26
14232;BME280;7200;52.194;9.900;2023-05-15T12:02:56;99627.56;;;23.27;87.76
14232;BME280;7200;52.194;9.900;2023-05-15T12:05:22;99596.00;;;22.93;87.35
14232;BME280;7200;52.194;9.900;2023-05-15T12:07:47;99570.91;;;22.67;86.69
14232;BME280;7200;52.194;9.900;2023-05-15T12:10:13;99502.44;;;22.35;84.44
14232;BME280;7200;52.194;9.900;2023-05-15T12:12:42;99497.16;;;22.25;83.90
14232;BME280;7200;52.194;9.900;2023-05-15T12:15:09;99596.00;;;22.22;89.67
14232;BME280;7200;52.194;9.900;2023-05-15T12:17:39;99658.09;;;22.82;90.17
14232;BME280;7200;52.194;9.900;2023-05-15T12:20:14;99677.03;;;23.08;89.64
14232;BME280;7200;52.194;9.900;2023-05-15T12:22:40;99629.06;;;22.86;89.49
14232;BME280;7200;52.194;9.900;2023-05-15T12:25:07;99614.47;;;22.70;90.02
14232;BME280;7200;52.194;9.900;2023-05-15T12:27:34;99594.41;;;22.29;91.16
14232;BME280;7200;52.194;9.900;2023-05-15T12:30:01;99663.69;;;22.35;95.24
14232;BME280;7200;52.194;9.900;2023-05-15T12:32:29;99628.09;;;22.51;92.89
14232;BME280;7200;52.194;9.900;2023-05-15T12:34:55;99644.91;;;22.71;91.88
14232;BME280;7200;52.194;9.900;2023-05-15T12:37:20;99577.94;;;22.42;90.79
14232;BME280;7200;52.194;9.900;2023-05-15T12:39:53;99612.78;;;22.69;90.79
14232;BME280;7200;52.194;9.900;2023-05-15T12:42:19;99647.25;;;22.92;91.85
14232;BME280;7200;52.194;9.900;2023-05-15T12:44:44;99524.81;;;22.80;83.39
14232;BME280;7200;52.194;9.900;2023-05-15T12:47:12;99602.66;;;23.25;83.32
14232;BME280;7200;52.194;9.900;2023-05-15T12:49:39;99556.00;;;23.17;83.38
14232;BME280;7200;52.194;9.900;2023-05-15T12:52:09;99558.34;;;22.93;84.16
14232;BME280;7200;52.194;9.900;2023-05-15T12:54:38;99632.22;;;23.17;85.36
14232;BME280;7200;52.194;9.900;2023-05-15T12:57:05;99508.03;;;23.04;80.55
14232;BME280;7200;52.194;9.900;2023-05-15T12:59:30;99553.69;;;23.22;79.43
14232;BME280;7200;52.194;9.900;2023-05-15T13:02:00;99650.75;;;23.46;84.26
14232;BME280;7200;52.194;9.900;2023-05-15T13:04:25;99665.16;;;23.37;87.75
14232;BME280;7200;52.194;9.900;2023-05-15T13:06:51;99646.16;;;23.39;88.89
14232;BME280;7200;52.194;9.900;2023-05-15T13:09:23;99693.34;;;23.51;90.75
14232;BME280;7200;52.194;9.900;2023-05-15T13:11:50;99622.59;;;23.15;89.23
14232;BME280;7200;52.194;9.900;2023-05-15T13:14:16;99660.72;;;23.54;88.58
14232;BME280;7200;52.194;9.900;2023-05-15T13:16:44;99655.50;;;23.79;87.18
14232;BME280;7200;52.194;9.900;2023-05-15T13:19:11;99574.91;;;23.51;85.63
14232;BME280;7200;52.194;9.900;2023-05-15T13:21:36;99491.78;;;23.13;84.69
14232;BME280;7200;52.194;9.900;2023-05-15T13:24:02;99553.66;;;23.13;85.79
14232;BME280;7200;52.194;9.900;2023-05-15T13:26:27;99532.59;;;23.09;84.20
14232;BME280;7200;52.194;9.900;2023-05-15T13:28:53;99596.31;;;23.08;86.99
14232;BME280;7200;52.194;9.900;2023-05-15T13:31:18;99520.91;;;23.00;83.96